Terminal Aerodrome Forecast
Issued by NWS

Home | Current Version | Previous Version | Text Only | Print | Product List | Glossary On
Versions: 1 2 3 4 5 6 7 8 9 10 11 12 13 14 15
000
FTUS42 KMLB 310302 AAA
TAFSFB
TAF AMD
KSFB 310302Z 3103/3124 17009KT P6SM SCT012 BKN022 BKN029
     FM311300 17005KT P6SM VCSH SCT025 OVC100
     FM311800 21013KT P6SM VCSH SCT030 OVC060=

USA.gov is the U.S. government's official web portal to all federal, state and local government web resources and services.